createdAt,value
2022-12-16T00:00:17.138Z,1009.52
2022-12-16T00:01:17.131Z,1009.60
2022-12-16T00:02:17.163Z,1009.60
2022-12-16T00:03:17.159Z,1009.62
2022-12-16T00:04:17.080Z,1009.62
2022-12-16T00:05:17.073Z,1009.65
2022-12-16T00:06:17.077Z,1009.66
2022-12-16T00:07:17.041Z,1009.54
2022-12-16T00:08:17.037Z,1009.63
2022-12-16T00:09:17.711Z,1009.55
2022-12-16T00:10:17.015Z,1009.58
2022-12-16T00:11:16.995Z,1009.53
2022-12-16T00:12:16.999Z,1009.60
2022-12-16T00:13:17.019Z,1009.53
2022-12-16T00:14:16.948Z,1009.53
2022-12-16T00:15:16.955Z,1009.56
2022-12-16T00:16:16.993Z,1009.50
2022-12-16T00:17:16.929Z,1009.55
2022-12-16T00:18:16.904Z,1009.61
2022-12-16T00:19:16.892Z,1009.69
2022-12-16T00:20:16.870Z,1009.67
2022-12-16T00:21:16.864Z,1009.64
2022-12-16T00:22:16.863Z,1009.65
2022-12-16T00:23:16.852Z,1009.71
2022-12-16T00:24:16.823Z,1009.65
2022-12-16T00:25:16.816Z,1009.64
2022-12-16T00:26:16.817Z,1009.67
2022-12-16T00:27:16.794Z,1009.65
2022-12-16T00:28:16.785Z,1009.68
2022-12-16T00:29:16.763Z,1009.64
2022-12-16T00:30:16.748Z,1009.61
2022-12-16T00:31:16.804Z,1009.61
2022-12-16T00:32:16.737Z,1009.62
2022-12-16T00:33:16.744Z,1009.59
2022-12-16T00:34:16.735Z,1009.50
2022-12-16T00:35:16.688Z,1009.54
2022-12-16T00:36:16.683Z,1009.56
2022-12-16T00:37:16.664Z,1009.56
2022-12-16T00:38:16.637Z,1009.55
2022-12-16T00:39:16.646Z,1009.53
2022-12-16T00:40:16.623Z,1009.57
2022-12-16T00:41:16.631Z,1009.58
2022-12-16T00:42:16.599Z,1009.63
2022-12-16T00:43:16.603Z,1009.67
2022-12-16T00:44:16.586Z,1009.62
2022-12-16T00:45:16.565Z,1009.71
2022-12-16T00:46:16.573Z,1009.70
2022-12-16T00:47:16.545Z,1009.71
2022-12-16T00:48:16.548Z,1009.68
2022-12-16T00:49:16.545Z,1009.63
2022-12-16T00:50:16.497Z,1009.70
2022-12-16T00:51:17.168Z,1009.75
2022-12-16T00:52:16.560Z,1009.66
2022-12-16T00:53:16.481Z,1009.72
2022-12-16T00:54:16.448Z,1009.64
2022-12-16T00:55:16.443Z,1009.73
2022-12-16T00:56:16.430Z,1009.74
2022-12-16T00:57:16.418Z,1009.83
2022-12-16T00:58:16.446Z,1009.76
2022-12-16T00:59:16.415Z,1009.84
2022-12-16T01:00:16.380Z,1009.78
2022-12-16T01:01:16.380Z,1009.86
2022-12-16T01:02:16.447Z,1009.81
2022-12-16T01:03:33.063Z,1009.80
2022-12-16T01:04:17.335Z,1009.83
2022-12-16T01:05:16.313Z,1009.91
2022-12-16T01:06:16.296Z,1009.86
2022-12-16T01:07:16.287Z,1009.90
2022-12-16T01:08:16.262Z,1009.88
2022-12-16T01:09:16.298Z,1009.90
2022-12-16T01:10:16.277Z,1009.91
2022-12-16T01:11:16.235Z,1009.91
2022-12-16T01:12:16.215Z,1009.95
2022-12-16T01:13:16.214Z,1009.93
2022-12-16T01:14:20.147Z,1009.95
2022-12-16T01:15:16.186Z,1009.88
2022-12-16T01:16:16.201Z,1009.88
2022-12-16T01:17:16.155Z,1009.98
2022-12-16T01:18:16.155Z,1009.97
2022-12-16T01:19:16.159Z,1009.95
2022-12-16T01:20:16.117Z,1009.97
2022-12-16T01:21:16.120Z,1009.98
2022-12-16T01:22:16.098Z,1010.08
2022-12-16T01:23:16.083Z,1009.97
2022-12-16T01:24:16.090Z,1010.07
2022-12-16T01:25:16.067Z,1010.04
2022-12-16T01:26:16.057Z,1010.07
2022-12-16T01:27:16.041Z,1010.09
2022-12-16T01:28:16.058Z,1010.05
2022-12-16T01:29:16.020Z,1010.12
2022-12-16T01:30:16.052Z,1010.12
2022-12-16T01:31:16.035Z,1010.07
2022-12-16T01:32:15.967Z,1010.14
2022-12-16T01:33:15.959Z,1010.09
2022-12-16T01:34:15.972Z,1010.14
2022-12-16T01:35:44.232Z,1010.05
2022-12-16T01:36:16.915Z,1010.13
2022-12-16T01:37:15.899Z,1010.14
2022-12-16T01:38:15.882Z,1010.10
2022-12-16T01:39:15.887Z,1010.14
2022-12-16T01:40:15.890Z,1010.07
2022-12-16T01:41:15.840Z,1010.15
2022-12-16T01:42:15.847Z,1010.11
2022-12-16T01:43:15.829Z,1010.19
2022-12-16T01:44:15.818Z,1010.28
2022-12-16T01:45:15.820Z,1010.31
2022-12-16T01:46:15.865Z,1010.32
2022-12-16T01:47:15.768Z,1010.35
2022-12-16T01:48:15.762Z,1010.31
2022-12-16T01:49:15.745Z,1010.35
2022-12-16T01:50:15.751Z,1010.31
2022-12-16T01:51:15.714Z,1010.26
2022-12-16T01:52:15.720Z,1010.29
2022-12-16T01:53:15.696Z,1010.26
2022-12-16T01:54:15.687Z,1010.26
2022-12-16T01:55:15.875Z,1010.26
2022-12-16T01:56:15.668Z,1010.29
2022-12-16T01:57:15.654Z,1010.31
2022-12-16T01:58:15.643Z,1010.28
2022-12-16T01:59:15.630Z,1010.29
2022-12-16T02:00:15.621Z,1010.25
2022-12-16T02:01:16.348Z,1010.23
2022-12-16T02:02:15.698Z,1010.24
2022-12-16T02:03:15.644Z,1010.28
2022-12-16T02:04:15.603Z,1010.22
2022-12-16T02:05:15.579Z,1010.27
2022-12-16T02:06:15.539Z,1010.27
2022-12-16T02:07:15.514Z,1010.23
2022-12-16T02:08:15.511Z,1010.25
2022-12-16T02:09:15.497Z,1010.24
2022-12-16T02:10:15.542Z,1010.23
2022-12-16T02:11:15.499Z,1010.20
2022-12-16T02:12:15.477Z,1010.15
2022-12-16T02:13:15.458Z,1010.21
2022-12-16T02:14:15.445Z,1010.16
2022-12-16T02:15:15.429Z,1010.20
2022-12-16T02:16:17.275Z,1010.26
2022-12-16T02:17:15.488Z,1010.23
2022-12-16T02:18:15.413Z,1010.26
2022-12-16T02:19:15.359Z,1010.24
2022-12-16T02:20:15.375Z,1010.31
2022-12-16T02:21:15.369Z,1010.28
2022-12-16T02:22:15.348Z,1010.27
2022-12-16T02:23:15.330Z,1010.20
2022-12-16T02:24:15.312Z,1010.22
2022-12-16T02:25:15.291Z,1010.21
2022-12-16T02:26:15.288Z,1010.30
2022-12-16T02:27:15.292Z,1010.27
2022-12-16T02:28:15.256Z,1010.41
2022-12-16T02:29:15.262Z,1010.30
2022-12-16T02:30:15.237Z,1010.28
2022-12-16T02:31:15.279Z,1010.29
2022-12-16T02:32:15.211Z,1010.30
2022-12-16T02:33:15.215Z,1010.37
2022-12-16T02:34:19.115Z,1010.30
2022-12-16T02:35:15.173Z,1010.28
2022-12-16T02:36:15.151Z,1010.28
2022-12-16T02:37:15.138Z,1010.29
2022-12-16T02:38:15.183Z,1010.31
2022-12-16T02:39:15.154Z,1010.33
2022-12-16T02:40:15.129Z,1010.31
2022-12-16T02:41:15.088Z,1010.24
2022-12-16T02:42:15.101Z,1010.31
2022-12-16T02:43:15.079Z,1010.26
2022-12-16T02:44:15.071Z,1010.26
2022-12-16T02:45:15.066Z,1010.27
2022-12-16T02:46:15.086Z,1010.19
2022-12-16T02:47:15.025Z,1010.16
2022-12-16T02:48:15.032Z,1010.20
2022-12-16T02:49:14.987Z,1010.19
2022-12-16T02:50:15.024Z,1010.27
2022-12-16T02:51:14.953Z,1010.27
2022-12-16T02:52:14.960Z,1010.23
2022-12-16T02:53:14.964Z,1010.24
2022-12-16T02:54:14.952Z,1010.25
2022-12-16T02:55:14.910Z,1010.22
2022-12-16T02:56:14.939Z,1010.25
2022-12-16T02:57:14.897Z,1010.32
2022-12-16T02:58:15.562Z,1010.28
2022-12-16T02:59:14.888Z,1010.28
2022-12-16T03:00:14.854Z,1010.29
2022-12-16T03:01:14.906Z,1010.24
2022-12-16T03:02:14.977Z,1010.31
2022-12-16T03:03:14.859Z,1010.26
2022-12-16T03:04:14.823Z,1010.30
2022-12-16T03:05:14.793Z,1010.27
2022-12-16T03:06:14.800Z,1010.31
2022-12-16T03:07:14.769Z,1010.35
2022-12-16T03:08:14.773Z,1010.28
2022-12-16T03:09:14.746Z,1010.32
2022-12-16T03:10:14.755Z,1010.27
2022-12-16T03:11:19.628Z,1010.30
2022-12-16T03:12:14.696Z,1010.25
2022-12-16T03:13:14.686Z,1010.29
2022-12-16T03:14:14.707Z,1010.23
2022-12-16T03:15:14.680Z,1010.32
2022-12-16T03:16:14.746Z,1010.29
2022-12-16T03:17:14.634Z,1010.26
2022-12-16T03:18:14.664Z,1010.26
2022-12-16T03:19:14.624Z,1010.26
2022-12-16T03:20:14.613Z,1010.28
2022-12-16T03:21:14.631Z,1010.30
2022-12-16T03:22:14.570Z,1010.33
2022-12-16T03:23:14.574Z,1010.28
2022-12-16T03:24:14.554Z,1010.40
2022-12-16T03:25:14.544Z,1010.36
2022-12-16T03:26:14.542Z,1010.33
2022-12-16T03:27:14.502Z,1010.36
2022-12-16T03:28:14.500Z,1010.43
2022-12-16T03:29:14.485Z,1010.45
2022-12-16T03:30:14.475Z,1010.42
2022-12-16T03:31:15.206Z,1010.40
2022-12-16T03:32:14.494Z,1010.44
2022-12-16T03:33:14.444Z,1010.43
2022-12-16T03:34:14.440Z,1010.48
2022-12-16T03:35:14.426Z,1010.58
2022-12-16T03:36:14.421Z,1010.50
2022-12-16T03:37:14.392Z,1010.52
2022-12-16T03:38:14.381Z,1010.50
2022-12-16T03:39:14.364Z,1010.48
2022-12-16T03:40:14.362Z,1010.55
2022-12-16T03:41:14.354Z,1010.50
2022-12-16T03:42:14.338Z,1010.56
2022-12-16T03:43:14.315Z,1010.52
2022-12-16T03:44:14.304Z,1010.66
2022-12-16T03:45:14.315Z,1010.65
2022-12-16T03:46:14.313Z,1010.62
2022-12-16T03:47:19.773Z,1010.58
2022-12-16T03:48:15.252Z,1010.59
2022-12-16T03:49:14.227Z,1010.61
2022-12-16T03:50:14.230Z,1010.62
2022-12-16T03:51:14.235Z,1010.57
2022-12-16T03:52:14.198Z,1010.62
2022-12-16T03:53:14.184Z,1010.69
2022-12-16T03:54:14.170Z,1010.70
2022-12-16T03:55:14.156Z,1010.57
2022-12-16T03:56:14.160Z,1010.67
2022-12-16T03:57:15.577Z,1010.64
2022-12-16T03:58:14.145Z,1010.72
2022-12-16T03:59:14.097Z,1010.69
2022-12-16T04:00:14.098Z,1010.74
2022-12-16T04:01:14.153Z,1010.72
2022-12-16T04:02:14.186Z,1010.69
2022-12-16T04:03:14.245Z,1010.73
2022-12-16T04:04:14.057Z,1010.72
2022-12-16T04:05:14.039Z,1010.74
2022-12-16T04:06:14.027Z,1010.68
2022-12-16T04:07:14.005Z,1010.72
2022-12-16T04:08:14.030Z,1010.73
2022-12-16T04:09:13.974Z,1010.70
2022-12-16T04:10:13.965Z,1010.65
2022-12-16T04:11:13.966Z,1010.76
2022-12-16T04:12:13.949Z,1010.70
2022-12-16T04:13:13.929Z,1010.78
2022-12-16T04:14:13.914Z,1010.84
2022-12-16T04:15:13.896Z,1010.76
2022-12-16T04:16:14.005Z,1010.89
2022-12-16T04:17:13.889Z,1010.89
2022-12-16T04:18:13.860Z,1010.83
2022-12-16T04:19:13.847Z,1010.83
2022-12-16T04:20:13.840Z,1010.78
2022-12-16T04:21:13.827Z,1010.83
2022-12-16T04:22:13.814Z,1010.85
2022-12-16T04:23:13.820Z,1010.80
2022-12-16T04:24:13.786Z,1010.86
2022-12-16T04:25:13.776Z,1010.88
2022-12-16T04:26:13.784Z,1010.85
2022-12-16T04:27:15.902Z,1010.94
2022-12-16T04:28:13.791Z,1010.91
2022-12-16T04:29:13.722Z,1010.90
2022-12-16T04:30:13.714Z,1010.88
2022-12-16T04:31:13.809Z,1010.94
2022-12-16T04:32:13.693Z,1010.93
2022-12-16T04:33:17.683Z,1010.98
2022-12-16T04:34:13.702Z,1011.00
2022-12-16T04:35:13.645Z,1011.04
2022-12-16T04:36:13.643Z,1011.04
2022-12-16T04:37:13.683Z,1010.98
2022-12-16T04:38:13.639Z,1011.09
2022-12-16T04:39:13.599Z,1011.03
2022-12-16T04:40:17.520Z,1011.04
2022-12-16T04:41:13.599Z,1011.11
2022-12-16T04:42:13.588Z,1011.08
2022-12-16T04:43:13.560Z,1011.17
2022-12-16T04:44:13.568Z,1011.10
2022-12-16T04:45:13.598Z,1011.15
2022-12-16T04:46:13.617Z,1011.19
2022-12-16T04:47:13.494Z,1011.17
2022-12-16T04:48:13.513Z,1011.18
2022-12-16T04:49:13.466Z,1011.17
2022-12-16T04:50:13.471Z,1011.15
2022-12-16T04:51:13.485Z,1011.26
2022-12-16T04:52:13.445Z,1011.17
2022-12-16T04:53:13.440Z,1011.18
2022-12-16T04:54:13.428Z,1011.23
2022-12-16T04:55:13.412Z,1011.17
2022-12-16T04:56:13.444Z,1011.13
2022-12-16T04:57:13.374Z,1011.25
2022-12-16T04:58:13.370Z,1011.24
2022-12-16T04:59:13.371Z,1011.26
2022-12-16T05:00:13.366Z,1011.28
2022-12-16T05:01:13.396Z,1011.25
2022-12-16T05:02:13.407Z,1011.27
2022-12-16T05:03:13.342Z,1011.19
2022-12-16T05:04:13.300Z,1011.26
2022-12-16T05:05:13.273Z,1011.25
2022-12-16T05:06:13.284Z,1011.23
2022-12-16T05:07:13.293Z,1011.36
2022-12-16T05:08:13.236Z,1011.31
2022-12-16T05:09:13.240Z,1011.31
2022-12-16T05:10:13.227Z,1011.36
2022-12-16T05:11:13.211Z,1011.37
2022-12-16T05:12:13.212Z,1011.36
2022-12-16T05:13:13.179Z,1011.37
2022-12-16T05:14:13.173Z,1011.46
2022-12-16T05:15:13.161Z,1011.41
2022-12-16T05:16:13.185Z,1011.40
2022-12-16T05:17:13.145Z,1011.43
2022-12-16T05:18:13.150Z,1011.40
2022-12-16T05:19:13.112Z,1011.39
2022-12-16T05:20:13.091Z,1011.41
2022-12-16T05:21:13.079Z,1011.38
2022-12-16T05:22:13.083Z,1011.38
2022-12-16T05:23:13.117Z,1011.44
2022-12-16T05:24:13.041Z,1011.54
2022-12-16T05:25:13.027Z,1011.48
2022-12-16T05:26:13.046Z,1011.47
2022-12-16T05:27:13.037Z,1011.46
2022-12-16T05:28:12.992Z,1011.54
2022-12-16T05:29:12.971Z,1011.52
2022-12-16T05:30:12.959Z,1011.57
2022-12-16T05:31:13.049Z,1011.60
2022-12-16T05:32:12.968Z,1011.58
2022-12-16T05:33:12.935Z,1011.63
2022-12-16T05:34:12.945Z,1011.69
2022-12-16T05:35:12.905Z,1011.66
2022-12-16T05:36:12.892Z,1011.66
2022-12-16T05:37:12.906Z,1011.66
2022-12-16T05:38:12.868Z,1011.64
2022-12-16T05:39:12.859Z,1011.65
2022-12-16T05:40:12.838Z,1011.70
2022-12-16T05:41:12.832Z,1011.63
2022-12-16T05:42:12.854Z,1011.64
2022-12-16T05:43:16.722Z,1011.73
2022-12-16T05:44:12.789Z,1011.69
2022-12-16T05:45:12.782Z,1011.71
2022-12-16T05:46:12.880Z,1011.71
2022-12-16T05:47:12.830Z,1011.80
2022-12-16T05:48:12.749Z,1011.78
2022-12-16T05:49:12.741Z,1011.82
2022-12-16T05:50:12.705Z,1011.88
2022-12-16T05:51:12.721Z,1011.79
2022-12-16T05:52:12.716Z,1011.78
2022-12-16T05:53:12.705Z,1011.85
2022-12-16T05:54:12.654Z,1011.82
2022-12-16T05:55:12.657Z,1011.90
2022-12-16T05:56:12.638Z,1011.76
2022-12-16T05:57:12.637Z,1011.86
2022-12-16T05:58:12.632Z,1011.80
2022-12-16T05:59:12.605Z,1011.82
2022-12-16T06:00:12.589Z,1011.79
2022-12-16T06:01:12.591Z,1011.87
2022-12-16T06:02:12.979Z,1011.98
2022-12-16T06:03:12.677Z,1011.98
2022-12-16T06:04:17.257Z,1011.96
2022-12-16T06:05:13.521Z,1011.94
2022-12-16T06:06:12.514Z,1011.87
2022-12-16T06:07:12.642Z,1011.99
2022-12-16T06:08:12.501Z,1011.99
2022-12-16T06:09:12.485Z,1011.94
2022-12-16T06:10:13.418Z,1011.88
2022-12-16T06:11:13.144Z,1012.01
2022-12-16T06:12:12.609Z,1012.03
2022-12-16T06:13:12.481Z,1011.95
2022-12-16T06:14:12.435Z,1012.06
2022-12-16T06:15:12.435Z,1012.06
2022-12-16T06:16:13.082Z,1012.00
2022-12-16T06:17:12.635Z,1012.00
2022-12-16T06:18:12.398Z,1011.96
2022-12-16T06:19:12.397Z,1012.05
2022-12-16T06:20:12.378Z,1012.01
2022-12-16T06:21:12.362Z,1011.99
2022-12-16T06:22:13.175Z,1012.05
2022-12-16T06:23:12.348Z,1012.05
2022-12-16T06:24:12.280Z,1012.11
2022-12-16T06:25:12.283Z,1011.96
2022-12-16T06:26:12.946Z,1012.06
2022-12-16T06:27:12.300Z,1012.10
2022-12-16T06:28:12.271Z,1012.15
2022-12-16T06:29:12.241Z,1012.07
2022-12-16T06:30:12.213Z,1012.07
2022-12-16T06:31:12.227Z,1012.12
2022-12-16T06:32:12.182Z,1012.23
2022-12-16T06:33:12.206Z,1012.11
2022-12-16T06:34:12.167Z,1012.13
2022-12-16T06:35:12.152Z,1012.14
2022-12-16T06:36:12.178Z,1012.16
2022-12-16T06:37:12.150Z,1012.25
2022-12-16T06:38:12.166Z,1012.20
2022-12-16T06:39:12.146Z,1012.25
2022-12-16T06:40:12.084Z,1012.23
2022-12-16T06:41:12.087Z,1012.33
2022-12-16T06:42:12.069Z,1012.28
2022-12-16T06:43:12.059Z,1012.34
2022-12-16T06:44:12.065Z,1012.42
2022-12-16T06:45:12.042Z,1012.37
2022-12-16T06:46:12.041Z,1012.35
2022-12-16T06:47:12.006Z,1012.40
2022-12-16T06:48:12.032Z,1012.40
2022-12-16T06:49:11.978Z,1012.40
2022-12-16T06:50:11.973Z,1012.48
2022-12-16T06:51:11.948Z,1012.39
2022-12-16T06:52:11.931Z,1012.38
2022-12-16T06:53:11.918Z,1012.42
2022-12-16T06:54:12.582Z,1012.44
2022-12-16T06:55:11.906Z,1012.45
2022-12-16T06:56:11.886Z,1012.48
2022-12-16T06:57:11.879Z,1012.49
2022-12-16T06:58:11.860Z,1012.50
2022-12-16T06:59:11.862Z,1012.58
2022-12-16T07:00:15.598Z,1012.61
2022-12-16T07:01:11.895Z,1012.51
2022-12-16T07:02:11.924Z,1012.57
2022-12-16T07:03:11.838Z,1012.56
2022-12-16T07:04:11.804Z,1012.55
2022-12-16T07:05:11.785Z,1012.49
2022-12-16T07:06:11.776Z,1012.50
2022-12-16T07:07:11.755Z,1012.54
2022-12-16T07:08:11.729Z,1012.48
2022-12-16T07:09:11.755Z,1012.48
2022-12-16T07:10:11.706Z,1012.58
2022-12-16T07:11:16.671Z,1012.62
2022-12-16T07:12:12.686Z,1012.63
2022-12-16T07:13:11.675Z,1012.63
2022-12-16T07:14:11.691Z,1012.63
2022-12-16T07:15:11.668Z,1012.68
2022-12-16T07:16:11.671Z,1012.67
2022-12-16T07:17:16.863Z,1012.69
2022-12-16T07:18:12.613Z,1012.68
2022-12-16T07:19:11.620Z,1012.78
2022-12-16T07:20:11.584Z,1012.76
2022-12-16T07:21:11.578Z,1012.79
2022-12-16T07:22:11.582Z,1012.83
2022-12-16T07:23:17.719Z,1012.83
2022-12-16T07:24:13.255Z,1012.87
2022-12-16T07:25:11.548Z,1012.87
2022-12-16T07:26:11.523Z,1012.87
2022-12-16T07:27:11.521Z,1012.95
2022-12-16T07:28:15.513Z,1012.90
2022-12-16T07:29:11.479Z,1012.97
2022-12-16T07:30:11.476Z,1012.97
2022-12-16T07:31:11.521Z,1013.13
2022-12-16T07:32:11.542Z,1012.98
2022-12-16T07:33:11.423Z,1013.00
2022-12-16T07:34:11.403Z,1012.99
2022-12-16T07:35:11.470Z,1013.11
2022-12-16T07:36:12.137Z,1013.02
2022-12-16T07:37:11.397Z,1013.01
2022-12-16T07:38:11.394Z,1013.10
2022-12-16T07:39:11.355Z,1013.13
2022-12-16T07:40:11.340Z,1013.12
2022-12-16T07:41:11.323Z,1013.15
2022-12-16T07:42:11.318Z,1013.17
2022-12-16T07:43:11.297Z,1013.22
2022-12-16T07:44:11.272Z,1013.22
2022-12-16T07:45:11.374Z,1013.21
2022-12-16T07:46:11.284Z,1013.27
2022-12-16T07:47:15.965Z,1013.23
2022-12-16T07:48:11.258Z,1013.28
2022-12-16T07:49:11.271Z,1013.21
2022-12-16T07:50:11.228Z,1013.31
2022-12-16T07:51:11.212Z,1013.28
2022-12-16T07:52:11.875Z,1013.26
2022-12-16T07:53:11.186Z,1013.35
2022-12-16T07:54:11.151Z,1013.33
2022-12-16T07:55:11.159Z,1013.40
2022-12-16T07:56:11.124Z,1013.37
2022-12-16T07:57:11.137Z,1013.46
2022-12-16T07:58:11.094Z,1013.42
2022-12-16T07:59:11.099Z,1013.46
2022-12-16T08:00:11.153Z,1013.32
2022-12-16T08:01:11.121Z,1013.39
2022-12-16T08:02:11.192Z,1013.42
2022-12-16T08:03:11.172Z,1013.44
2022-12-16T08:04:11.051Z,1013.47
2022-12-16T08:05:11.037Z,1013.48
2022-12-16T08:06:10.990Z,1013.56
2022-12-16T08:07:11.000Z,1013.56
2022-12-16T08:08:10.973Z,1013.53
2022-12-16T08:09:10.978Z,1013.53
2022-12-16T08:10:11.005Z,1013.55
2022-12-16T08:11:10.940Z,1013.48
2022-12-16T08:12:10.928Z,1013.48
2022-12-16T08:13:10.921Z,1013.50
2022-12-16T08:14:10.921Z,1013.58
2022-12-16T08:15:10.900Z,1013.57
2022-12-16T08:16:10.932Z,1013.57
2022-12-16T08:17:10.931Z,1013.61
2022-12-16T08:18:10.842Z,1013.69
2022-12-16T08:19:11.473Z,1013.70
2022-12-16T08:20:10.874Z,1013.69
2022-12-16T08:21:10.832Z,1013.71
2022-12-16T08:22:10.866Z,1013.71
2022-12-16T08:23:10.794Z,1013.79
2022-12-16T08:24:10.780Z,1013.78
2022-12-16T08:25:10.758Z,1013.75
2022-12-16T08:26:10.773Z,1013.84
2022-12-16T08:27:10.727Z,1013.87
2022-12-16T08:28:10.722Z,1013.91
2022-12-16T08:29:35.100Z,1013.82
2022-12-16T08:30:11.687Z,1013.96
2022-12-16T08:31:10.811Z,1013.91
2022-12-16T08:32:10.675Z,1013.91
2022-12-16T08:33:18.263Z,1013.99
2022-12-16T08:34:11.676Z,1014.00
2022-12-16T08:35:10.628Z,1013.95
2022-12-16T08:36:10.679Z,1014.00
2022-12-16T08:37:10.609Z,1014.06
2022-12-16T08:38:13.973Z,1014.05
2022-12-16T08:39:10.601Z,1014.07
2022-12-16T08:41:11.577Z,1014.08
2022-12-16T08:42:10.541Z,1014.15
2022-12-16T08:43:12.726Z,1014.18
2022-12-16T08:44:10.546Z,1014.16
2022-12-16T08:45:10.547Z,1014.17
2022-12-16T08:46:10.619Z,1014.14
2022-12-16T08:47:10.475Z,1014.15
2022-12-16T08:48:10.462Z,1014.19
2022-12-16T08:49:10.460Z,1014.17
2022-12-16T08:50:10.495Z,1014.22
2022-12-16T08:51:10.455Z,1014.13
2022-12-16T08:52:10.412Z,1014.17
2022-12-16T08:53:10.402Z,1014.15
2022-12-16T08:54:10.392Z,1014.14
2022-12-16T08:55:10.503Z,1014.21
2022-12-16T08:56:10.407Z,1014.23
2022-12-16T08:57:10.346Z,1014.24
2022-12-16T08:58:10.338Z,1014.24
2022-12-16T08:59:10.347Z,1014.22
2022-12-16T09:00:10.373Z,1014.27
2022-12-16T09:01:10.396Z,1014.27
2022-12-16T09:02:10.386Z,1014.25
2022-12-16T09:03:10.680Z,1014.28
2022-12-16T09:04:10.253Z,1014.35
2022-12-16T09:05:10.288Z,1014.35
2022-12-16T09:06:10.260Z,1014.35
2022-12-16T09:07:10.235Z,1014.32
2022-12-16T09:08:14.068Z,1014.43
2022-12-16T09:09:10.228Z,1014.35
2022-12-16T09:10:10.199Z,1014.34
2022-12-16T09:11:10.189Z,1014.36
2022-12-16T09:12:10.168Z,1014.37
2022-12-16T09:13:10.150Z,1014.41
2022-12-16T09:14:10.130Z,1014.41
2022-12-16T09:15:10.136Z,1014.47
2022-12-16T09:16:14.271Z,1014.39
2022-12-16T09:17:11.097Z,1014.40
2022-12-16T09:18:10.109Z,1014.48
2022-12-16T09:19:10.072Z,1014.45
2022-12-16T09:20:10.076Z,1014.51
2022-12-16T09:21:10.068Z,1014.56
2022-12-16T09:22:10.061Z,1014.59
2022-12-16T09:23:10.038Z,1014.60
2022-12-16T09:24:10.012Z,1014.64
2022-12-16T09:25:10.018Z,1014.57
2022-12-16T09:26:10.041Z,1014.52
2022-12-16T09:27:10.012Z,1014.67
2022-12-16T09:28:09.970Z,1014.71
2022-12-16T09:29:09.951Z,1014.69
2022-12-16T09:30:09.930Z,1014.64
2022-12-16T09:31:09.990Z,1014.65
2022-12-16T09:32:09.939Z,1014.60
2022-12-16T09:33:09.933Z,1014.64
2022-12-16T09:34:09.925Z,1014.64
2022-12-16T09:35:13.438Z,1014.62
2022-12-16T09:36:09.875Z,1014.68
2022-12-16T09:37:09.909Z,1014.66
2022-12-16T09:38:09.869Z,1014.64
2022-12-16T09:39:09.883Z,1014.67
2022-12-16T09:40:09.843Z,1014.68
2022-12-16T09:41:09.795Z,1014.67
2022-12-16T09:42:09.809Z,1014.67
2022-12-16T09:43:09.797Z,1014.74
2022-12-16T09:44:09.809Z,1014.71
2022-12-16T09:45:09.744Z,1014.74
2022-12-16T09:46:09.771Z,1014.76
2022-12-16T09:47:09.778Z,1014.74
2022-12-16T09:48:09.725Z,1014.77
2022-12-16T09:49:09.792Z,1014.74
2022-12-16T09:50:09.722Z,1014.77
2022-12-16T09:51:09.667Z,1014.78
2022-12-16T09:52:12.504Z,1014.83
2022-12-16T09:53:10.656Z,1014.80
2022-12-16T09:54:09.644Z,1014.87
2022-12-16T09:55:09.643Z,1014.80
2022-12-16T09:56:09.642Z,1014.83
2022-12-16T09:57:09.660Z,1014.85
2022-12-16T09:58:09.609Z,1014.78
2022-12-16T09:59:09.576Z,1014.85
2022-12-16T10:00:09.561Z,1014.82
2022-12-16T10:01:09.647Z,1014.80
2022-12-16T10:02:09.689Z,1014.75
2022-12-16T10:03:09.680Z,1014.79
2022-12-16T10:04:09.584Z,1014.76
2022-12-16T10:05:09.497Z,1014.85
2022-12-16T10:06:09.480Z,1014.82
2022-12-16T10:07:09.574Z,1014.83
2022-12-16T10:08:13.021Z,1014.87
2022-12-16T10:09:14.345Z,1014.85
2022-12-16T10:10:09.453Z,1014.81
2022-12-16T10:11:09.412Z,1014.83
2022-12-16T10:12:09.438Z,1014.89
2022-12-16T10:13:09.451Z,1014.90
2022-12-16T10:14:10.418Z,1014.93
2022-12-16T10:15:09.375Z,1014.94
2022-12-16T10:16:09.441Z,1014.91
2022-12-16T10:17:09.355Z,1014.91
2022-12-16T10:18:09.396Z,1014.94
2022-12-16T10:19:09.330Z,1014.96
2022-12-16T10:20:09.922Z,1014.93
2022-12-16T10:21:09.325Z,1014.98
2022-12-16T10:22:09.300Z,1015.01
2022-12-16T10:23:09.274Z,1014.97
2022-12-16T10:24:09.282Z,1014.97
2022-12-16T10:25:09.247Z,1014.97
2022-12-16T10:26:09.914Z,1014.96
2022-12-16T10:27:09.225Z,1014.95
2022-12-16T10:28:09.239Z,1014.92
2022-12-16T10:29:09.191Z,1014.89
2022-12-16T10:30:09.194Z,1014.94
2022-12-16T10:31:09.957Z,1014.96
2022-12-16T10:32:09.161Z,1014.96
2022-12-16T10:33:09.165Z,1014.98
2022-12-16T10:34:09.132Z,1015.00
2022-12-16T10:35:09.104Z,1015.05
2022-12-16T10:36:09.142Z,1015.01
2022-12-16T10:37:15.239Z,1014.99
2022-12-16T10:38:10.108Z,1015.01
2022-12-16T10:39:09.080Z,1014.95
2022-12-16T10:40:09.056Z,1014.98
2022-12-16T10:41:09.041Z,1015.04
2022-12-16T10:42:09.047Z,1015.04
2022-12-16T10:43:09.690Z,1015.05
2022-12-16T10:44:09.012Z,1015.04
2022-12-16T10:45:09.679Z,1015.03
2022-12-16T10:46:09.049Z,1015.04
2022-12-16T10:47:08.985Z,1015.09
2022-12-16T10:48:08.999Z,1015.05
2022-12-16T10:49:08.998Z,1015.04
2022-12-16T10:50:09.076Z,1015.00
2022-12-16T10:51:08.921Z,1015.03
2022-12-16T10:52:09.419Z,1015.03
2022-12-16T10:53:08.900Z,1015.05
2022-12-16T10:54:08.892Z,1015.04
2022-12-16T10:55:08.860Z,1015.03
2022-12-16T10:56:08.875Z,1015.06
2022-12-16T10:57:08.848Z,1014.97
2022-12-16T10:58:08.906Z,1015.05
2022-12-16T10:59:08.844Z,1015.09
2022-12-16T11:00:08.815Z,1015.03
2022-12-16T11:01:08.808Z,1015.09
2022-12-16T11:02:08.950Z,1015.05
2022-12-16T11:03:08.990Z,1015.08
2022-12-16T11:04:08.924Z,1015.01
2022-12-16T11:05:08.738Z,1015.01
2022-12-16T11:06:08.753Z,1015.01
2022-12-16T11:07:08.743Z,1015.05
2022-12-16T11:08:08.780Z,1014.95
2022-12-16T11:09:09.066Z,1014.99
2022-12-16T11:10:08.670Z,1014.94
2022-12-16T11:11:08.665Z,1014.94
2022-12-16T11:12:08.664Z,1014.98
2022-12-16T11:13:08.628Z,1014.96
2022-12-16T11:14:08.635Z,1014.99
2022-12-16T11:16:09.644Z,1014.97
2022-12-16T11:17:08.569Z,1014.97
2022-12-16T11:18:08.603Z,1014.96
2022-12-16T11:19:08.571Z,1014.98
2022-12-16T11:20:08.574Z,1014.99
2022-12-16T11:21:10.471Z,1014.89
2022-12-16T11:22:08.527Z,1015.00
2022-12-16T11:23:08.508Z,1014.99
2022-12-16T11:24:08.521Z,1014.96
2022-12-16T11:25:08.488Z,1014.97
2022-12-16T11:26:08.459Z,1015.02
2022-12-16T11:27:08.518Z,1015.00
2022-12-16T11:28:08.489Z,1015.00
2022-12-16T11:29:08.419Z,1015.03
2022-12-16T11:30:08.438Z,1015.02
2022-12-16T11:31:20.102Z,1015.07
2022-12-16T11:32:08.417Z,1015.11
2022-12-16T11:33:08.372Z,1015.10
2022-12-16T11:34:08.388Z,1015.04
2022-12-16T11:35:08.368Z,1015.07
2022-12-16T11:36:08.379Z,1015.04
2022-12-16T11:37:10.879Z,1015.11
2022-12-16T11:38:08.398Z,1015.10
2022-12-16T11:39:08.311Z,1015.17
2022-12-16T11:40:08.300Z,1015.18
2022-12-16T11:41:08.278Z,1015.14
2022-12-16T11:42:08.291Z,1015.09
2022-12-16T11:43:12.830Z,1015.21
2022-12-16T11:44:09.244Z,1015.14
2022-12-16T11:45:08.228Z,1015.21
2022-12-16T11:46:08.269Z,1015.15
2022-12-16T11:47:08.239Z,1015.20
2022-12-16T11:48:08.293Z,1015.11
2022-12-16T11:49:08.216Z,1015.18
2022-12-16T11:50:08.184Z,1015.15
2022-12-16T11:51:08.195Z,1015.23
2022-12-16T11:52:28.384Z,1015.27
2022-12-16T11:53:09.160Z,1015.20
2022-12-16T11:54:08.141Z,1015.24
2022-12-16T11:55:08.138Z,1015.25
2022-12-16T11:56:15.475Z,1015.24
2022-12-16T11:57:09.062Z,1015.22
2022-12-16T11:58:08.066Z,1015.25
2022-12-16T11:59:08.048Z,1015.23
2022-12-16T12:00:08.039Z,1015.27
2022-12-16T12:01:08.027Z,1015.26
2022-12-16T12:02:08.059Z,1015.30
2022-12-16T12:03:08.091Z,1015.35
2022-12-16T12:04:08.049Z,1015.29
2022-12-16T12:05:07.963Z,1015.32
2022-12-16T12:06:07.964Z,1015.32
2022-12-16T12:07:07.965Z,1015.29